메인 페이지
METAR-TAF:

METAR-TAF

공항 :

Guthrie, 오클라호마, 미국

위도: 35-51-07N, 경도: 097-24-27W, 고도: 327m

현재 날씨관측

예보는 28분 전, 15:53시(UTC)에 발표되었습니다.
남남동4kt
온도 7°C
습도 49%
기압 1024 hPa
시정: 16.1km
맑음

METAR: KGOK 161553Z AUTO 15004KT 10SM CLR 07/M03 A3023 RMK AO2 SLP243 T00671033

시각: 10:21 (16:21 UTC)


TAF: 누락

4,000개 이상의 공항 관측 자료 및 예보 (METAR 및 TAF 보고).

지도상에서 검색 가능한 기상관측소가 노란 점과 빨간 점으로 표시되어 있습니다.

기상관측소 명을 보려면 표시 위로 마우스를 이동하세요.

날씨 관측과 예보를 보려면 클릭하세요.

지도 변경 : 확대하려면 엑스 표시가 있는 녹색 버튼, 축소하려면 빼기 표시가 있는 녹색 버튼, 다음 페이지의 지도를 보려면 녹색 화살표를 클릭하세요.


METAR-TAF: